Hordafor III — LLVC — position and weather

sailwx.info

Track history (hours):
 
Tides and Currents Weather Stations Pressure Air Temp Water Temp Dewpoint Dewpoint Depression Visibility Wind Speed Wind Dir Waves Ship Positions

Hordafor III

Last reported at 2018-May-25 13:59 UTC. Time now 2018-May-25 14:17 UTC.
Position N 60°00' E 005°07'.

Length 50 m.

Type: Ship. MMSI: 258044000.

Date/timePositionNaut miles runAvg speedWind from/ knotsBaromVisibWave heightAir tempDewpointWater temp
2018-May-25 13:59N 60°00' E 005°07'0 0.0
2018-May-25 13:26N 60°00' E 005°07'0 0.1
2018-May-25 12:56N 60°00' E 005°07'3 5.9
2018-May-25 12:30N 59°58' E 005°09'511.0
2018-May-25 12:00N 60°00' E 005°19'1 2.2
2018-May-25 11:30N 60°01' E 005°19'5 9.1
2018-May-25 11:00N 60°06' E 005°22'611.1
2018-May-25 10:29N 60°10' E 005°30'511.2
2018-May-25 10:00N 60°14' E 005°37'0 0.1
2018-May-25 09:10N 60°14' E 005°37'0 0.4
2018-May-25 08:12N 60°14' E 005°38'310.7
2018-May-25 07:55N 60°12' E 005°34'511.2
2018-May-25 07:30N 60°08' E 005°28'610.9
2018-May-25 07:00N 60°07' E 005°17'3 6.3
2018-May-25 06:30N 60°06' E 005°11'1 2.0
2018-May-25 06:00N 60°06' E 005°13'0 0.0
2018-May-25 05:30N 60°06' E 005°13'0 0.0
2018-May-25 05:00N 60°06' E 005°13'0 0.0
2018-May-25 04:30N 60°06' E 005°13'0 0.0
2018-May-25 04:00N 60°06' E 005°13'0 0.0
2018-May-25 03:30N 60°06' E 005°13'0 0.0
2018-May-25 03:00N 60°06' E 005°13'0 0.0
2018-May-25 02:29N 60°06' E 005°13'0 0.0
2018-May-25 02:00N 60°06' E 005°13'0 0.0
2018-May-25 01:30N 60°06' E 005°13'0 0.0
2018-May-25 01:00N 60°06' E 005°13'0 0.0
2018-May-25 00:30N 60°06' E 005°13'0 0.0
2018-May-25 00:00N 60°06' E 005°13'0 0.0
2018-May-24 23:30N 60°06' E 005°13'0 0.0
2018-May-24 23:00N 60°06' E 005°13'0 0.0
2018-May-24 22:29N 60°06' E 005°13'1 1.4
2018-May-24 22:00N 60°06' E 005°12'3 5.8
2018-May-24 21:30N 60°07' E 005°17'610.9
2018-May-24 21:00N 60°02' E 005°19'511.0
2018-May-24 20:30N 59°57' E 005°13'5 9.1
2018-May-24 20:00N 59°54' E 005°07'0 0.5
2018-May-24 19:30N 59°54' E 005°06'0 0.0
2018-May-24 19:00N 59°54' E 005°06'0 0.0
2018-May-24 18:30N 59°54' E 005°06'0 0.0
2018-May-24 18:00N 59°54' E 005°06'0 0.0
2018-May-24 17:29N 59°54' E 005°06'0 0.0
2018-May-24 17:00N 59°54' E 005°06'2 3.8
2018-May-24 16:31N 59°56' E 005°05'5 9.7
2018-May-24 16:00N 60°00' E 005°07'0 0.6
2018-May-24 15:28N 60°00' E 005°07'0 0.0
2018-May-24 14:49N 60°00' E 005°07'1 3.9
2018-May-24 14:30N 60°01' E 005°09'611.0
2018-May-24 14:00N 60°07' E 005°11'511.1
2018-May-24 13:30N 60°12' E 005°11'12 2.6
2018-May-24 08:59N 60°23' E 005°19'0 0.0
2018-May-24 08:30N 60°23' E 005°19'0 0.0
2018-May-24 08:00N 60°23' E 005°19'0 0.0
2018-May-24 07:30N 60°23' E 005°19'0 0.0
2018-May-24 07:00N 60°23' E 005°19'0 0.0
2018-May-24 06:30N 60°23' E 005°19'0 0.0
2018-May-24 06:00N 60°23' E 005°19'0 0.0
2018-May-24 05:30N 60°23' E 005°19'0 0.0
2018-May-24 05:00N 60°23' E 005°19'0 0.0
2018-May-24 04:30N 60°23' E 005°19'0 0.0
2018-May-24 04:00N 60°23' E 005°19'0 0.0
2018-May-24 03:30N 60°23' E 005°19'0 0.0
2018-May-24 03:00N 60°23' E 005°19'0 0.0
2018-May-24 02:30N 60°23' E 005°19'0 0.0
2018-May-24 02:00N 60°23' E 005°19'0 0.0
2018-May-24 01:29N 60°23' E 005°19'0 0.0
2018-May-24 01:00N 60°23' E 005°19'0 0.0
2018-May-24 00:30N 60°23' E 005°19'0 0.0
2018-May-24 00:00N 60°23' E 005°19'0 0.0
2018-May-23 23:30N 60°23' E 005°19'0 0.0
2018-May-23 23:00N 60°23' E 005°19'0 0.0
2018-May-23 22:29N 60°23' E 005°19'0 0.0
2018-May-23 22:00N 60°23' E 005°19'0 0.0
2018-May-23 21:30N 60°23' E 005°19'0 0.0
2018-May-23 20:59N 60°23' E 005°19'0 0.0
2018-May-23 20:30N 60°23' E 005°19'0 0.0
2018-May-23 19:59N 60°23' E 005°19'0 0.0
2018-May-23 19:30N 60°23' E 005°19'0 0.0
2018-May-23 19:00N 60°23' E 005°19'0 0.0
2018-May-23 18:30N 60°23' E 005°19'1 2.4
2018-May-23 18:00N 60°24' E 005°17'4 8.1
2018-May-23 17:30N 60°24' E 005°09'510.6
2018-May-23 17:00N 60°28' E 005°01'4 7.8
2018-May-23 16:30N 60°31' E 004°56'0 0.0
2018-May-23 16:00N 60°31' E 004°56'0 0.0
2018-May-23 15:30N 60°31' E 004°56'1 1.3
2018-May-23 15:00N 60°31' E 004°56'1 2.5
2018-May-23 14:30N 60°32' E 004°58'0 0.0
2018-May-23 14:00N 60°32' E 004°58'3 5.0
2018-May-23 13:30N 60°34' E 004°55'510.4
2018-May-23 13:00N 60°39' E 004°52'510.6
2018-May-23 12:30N 60°44' E 004°48'510.5
2018-May-23 12:00N 60°49' E 004°44'5 9.0
2018-May-23 11:30N 60°51' E 004°53'511.0
2018-May-23 11:00N 60°49' E 005°04'611.3
2018-May-23 10:30N 60°46' E 005°13'610.8
2018-May-23 10:00N 60°42' E 005°21'4 7.1
2018-May-23 09:28N 60°39' E 005°25'0 0.2
2018-May-23 09:00N 60°39' E 005°25'5 9.8
2018-May-23 08:30N 60°43' E 005°20'511.1
2018-May-23 08:00N 60°47' E 005°11'610.9
2018-May-23 07:30N 60°51' E 005°03'2 4.5
2018-May-23 07:00N 60°53' E 005°02'2 3.6
2018-May-23 06:30N 60°51' E 005°03'3 6.9
2018-May-23 06:00N 60°54' E 004°58'611.2
2018-May-23 05:30N 60°59' E 004°55'510.4
2018-May-23 05:00N 61°04' E 004°52'1 2.5
2018-May-23 04:30N 61°05' E 004°53'0 0.0
2018-May-23 03:59N 61°05' E 004°53'0 0.0
2018-May-23 03:30N 61°05' E 004°53'0 0.0
2018-May-23 03:00N 61°05' E 004°53'0 0.0
2018-May-23 02:29N 61°05' E 004°53'0 0.0
2018-May-23 02:00N 61°05' E 004°53'0 0.0
2018-May-23 01:28N 61°05' E 004°53'0 0.0
2018-May-23 01:00N 61°05' E 004°53'0 0.0
2018-May-23 00:29N 61°05' E 004°53'0 0.0
2018-May-22 23:59N 61°05' E 004°53'0 0.0
2018-May-22 23:30N 61°05' E 004°53'0 0.0
2018-May-22 23:00N 61°05' E 004°53'0 0.0
2018-May-22 22:30N 61°05' E 004°53'0 0.0
2018-May-22 22:00N 61°05' E 004°53'0 0.0
2018-May-22 21:28N 61°05' E 004°53'0 0.0
2018-May-22 20:58N 61°05' E 004°53'0 0.0
2018-May-22 20:29N 61°05' E 004°53'0 0.0
2018-May-22 20:00N 61°05' E 004°53'0 0.0
2018-May-22 19:30N 61°05' E 004°53'0 0.0
2018-May-22 19:00N 61°05' E 004°53'0 0.0
2018-May-22 18:30N 61°05' E 004°53'0 0.0
2018-May-22 18:00N 61°05' E 004°53'0 0.0
2018-May-22 17:30N 61°05' E 004°53'0 0.0
2018-May-22 17:00N 61°05' E 004°53'0 0.0
2018-May-22 16:30N 61°05' E 004°53'0 0.0
2018-May-22 16:00N 61°05' E 004°53'0 0.0
2018-May-22 15:30N 61°05' E 004°53'0 0.0
2018-May-22 15:00N 61°05' E 004°53'0 0.0
2018-May-22 14:30N 61°05' E 004°53'0 0.0
2018-May-22 14:00N 61°05' E 004°53'0 0.0
2018-May-22 13:30N 61°05' E 004°53'0 0.0
2018-May-22 13:00N 61°05' E 004°53'0 0.0
2018-May-22 12:29N 61°05' E 004°53'0 0.0
2018-May-22 12:00N 61°05' E 004°53'0 0.0
2018-May-22 11:30N 61°05' E 004°53'0 0.0
2018-May-22 11:00N 61°05' E 004°53'0 0.0
2018-May-22 10:30N 61°05' E 004°53'0 0.0
2018-May-22 10:00N 61°05' E 004°53'0 0.0
2018-May-22 09:30N 61°05' E 004°53'0 0.0
2018-May-22 09:00N 61°05' E 004°53'0 0.0
2018-May-22 08:30N 61°05' E 004°53'0 0.0
2018-May-22 08:00N 61°05' E 004°53'0 0.0
2018-May-22 07:30N 61°05' E 004°53'0 0.0
2018-May-22 07:00N 61°05' E 004°53'0 0.0
2018-May-22 06:30N 61°05' E 004°53'0 0.0
2018-May-22 06:00N 61°05' E 004°53'0 0.0
2018-May-22 05:30N 61°05' E 004°53'0 0.0
2018-May-22 05:00N 61°05' E 004°53'0 0.0
2018-May-22 04:30N 61°05' E 004°53'0 0.0
2018-May-22 04:00N 61°05' E 004°53'0 0.0
2018-May-22 03:30N 61°05' E 004°53'0 0.0
2018-May-22 03:00N 61°05' E 004°53'1 1.8
2018-May-22 02:29N 61°04' E 004°52'510.1
2018-May-22 02:00N 60°60' E 004°47'611.5
2018-May-22 01:30N 60°54' E 004°46'611.1
2018-May-22 00:59N 60°49' E 004°45'612.2
2018-May-22 00:30N 60°43' E 004°49'612.2
2018-May-22 00:01N 60°37' E 004°53'612.0
2018-May-21 23:30N 60°32' E 004°57'611.7
2018-May-21 23:00N 60°26' E 005°02'611.1
2018-May-21 22:30N 60°22' E 005°10'611.6
2018-May-21 22:00N 60°16' E 005°09'611.1
2018-May-21 21:30N 60°11' E 005°13'611.6
2018-May-21 21:00N 60°06' E 005°18'611.7
2018-May-21 20:30N 60°00' E 005°19'510.9
2018-May-21 20:00N 59°58' E 005°09'3 5.1
2018-May-21 19:30N 60°00' E 005°07'0 0.0
2018-May-21 18:03N 60°00' E 005°07'0 0.0
2018-May-21 17:59N 60°00' E 005°07'0 0.0
2018-May-21 17:30N 60°00' E 005°07'0 0.0
2018-May-21 16:59N 60°00' E 005°07'0 0.0
2018-May-21 16:22N 60°00' E 005°07'0 0.0
2018-May-21 15:58N 60°00' E 005°07'0 0.0
2018-May-21 15:13N 60°00' E 005°07'0 0.0
2018-May-21 14:52N 60°00' E 005°07'0 0.0
2018-May-21 14:30N 60°00' E 005°07'0 0.0
2018-May-21 13:35N 60°00' E 005°07'0 0.0
2018-May-21 13:30N 60°00' E 005°07'0 0.0
2018-May-21 12:59N 60°00' E 005°07'0 0.0
2018-May-21 12:25N 60°00' E 005°07'0 0.0
2018-May-21 12:00N 60°00' E 005°07'0 0.0
2018-May-21 11:29N 60°00' E 005°07'0 0.0
2018-May-21 10:56N 60°00' E 005°07'0 0.0
2018-May-21 10:29N 60°00' E 005°07'0 0.0
2018-May-21 09:35N 60°00' E 005°07'0 0.3
2018-May-21 09:30N 60°00' E 005°07'0 0.0
2018-May-21 08:58N 60°00' E 005°07'0 0.0
2018-May-21 08:22N 60°00' E 005°07'0 0.0
2018-May-21 07:21N 60°00' E 005°07'0 0.0
2018-May-21 07:00N 60°00' E 005°07'0 0.0
2018-May-21 06:23N 60°00' E 005°07'0 0.0
2018-May-21 05:57N 60°00' E 005°07'0 0.0
2018-May-21 05:26N 60°00' E 005°07'0 0.0
2018-May-21 04:50N 60°00' E 005°07'0 0.0
2018-May-21 04:20N 60°00' E 005°07'0 0.0
2018-May-21 04:00N 60°00' E 005°07'0 0.0
2018-May-21 03:30N 60°00' E 005°07'0 0.0
2018-May-21 03:00N 60°00' E 005°07'0 0.0
2018-May-21 02:29N 60°00' E 005°07'0 0.0
2018-May-21 01:49N 60°00' E 005°07'0 0.0
2018-May-21 01:30N 60°00' E 005°07'0 0.0
2018-May-21 00:52N 60°00' E 005°07'0 0.0
2018-May-21 00:29N 60°00' E 005°07'0 0.0
2018-May-20 23:58N 60°00' E 005°07'0 0.0
2018-May-20 23:30N 60°00' E 005°07'0 0.0
2018-May-20 22:59N 60°00' E 005°07'0 0.0
2018-May-20 22:29N 60°00' E 005°07'0 0.0
2018-May-20 21:34N 60°00' E 005°07'0 0.0
2018-May-20 21:29N 60°00' E 005°07'0 0.0
2018-May-20 20:16N 60°00' E 005°07'0 0.0
2018-May-20 20:00N 60°00' E 005°07'0 0.0
2018-May-20 19:30N 60°00' E 005°07'0 0.0
2018-May-20 18:59N 60°00' E 005°07'0 0.0
2018-May-20 18:27N 60°00' E 005°07'0 0.0
2018-May-20 18:00N 60°00' E 005°07'0 0.0
2018-May-20 17:29N 60°00' E 005°07'0 0.0
2018-May-20 16:59N 60°00' E 005°07'0 0.0
2018-May-20 16:30N 60°00' E 005°07'0 0.0
2018-May-20 15:53N 60°00' E 005°07'0 0.0
2018-May-20 15:30N 60°00' E 005°07'0 0.0
2018-May-20 14:58N 60°00' E 005°07'0 0.0
2018-May-20 14:29N 60°00' E 005°07'0 0.0
2018-May-20 14:00N 60°00' E 005°07'0 0.0
2018-May-20 13:24N 60°00' E 005°07'0 0.0
2018-May-20 12:51N 60°00' E 005°07'0 0.0
2018-May-20 12:13N 60°00' E 005°07'0 0.0
2018-May-20 11:55N 60°00' E 005°07'0 0.0
2018-May-20 11:25N 60°00' E 005°07'0 0.0
2018-May-20 11:00N 60°00' E 005°07'0 0.0
2018-May-20 10:18N 60°00' E 005°07'0 0.0
2018-May-20 09:59N 60°00' E 005°07'0 0.0
2018-May-20 09:30N 60°00' E 005°07'0 0.0
2018-May-20 09:00N 60°00' E 005°07'0 0.0
2018-May-20 08:29N 60°00' E 005°07'0 0.0
2018-May-20 07:59N 60°00' E 005°07'0 0.0
2018-May-20 07:30N 60°00' E 005°07'0 0.0
2018-May-20 06:55N 60°00' E 005°07'0 0.0
2018-May-20 06:30N 60°00' E 005°07'0 0.0
2018-May-20 05:59N 60°00' E 005°07'0 0.1
2018-May-20 05:10N 60°00' E 005°07'0 0.4
2018-May-20 04:59N 60°00' E 005°07'3 6.9
2018-May-20 04:30N 59°57' E 005°03'5 9.4
2018-May-20 04:00N 60°01' E 004°57'511.1
2018-May-20 03:31N 60°06' E 004°55'610.9
2018-May-20 03:00N 60°12' E 004°52'510.8
2018-May-20 02:30N 60°17' E 004°50'510.3
2018-May-20 02:00N 60°22' E 004°48'510.5
2018-May-20 01:30N 60°27' E 004°45'511.0
2018-May-20 01:00N 60°32' E 004°42'610.9
2018-May-20 00:29N 60°37' E 004°38'510.7
2018-May-20 00:00N 60°42' E 004°35'510.4
2018-May-19 23:29N 60°48' E 004°32'510.1
2018-May-19 22:59N 60°52' E 004°29'510.1
2018-May-19 22:30N 60°57' E 004°26'510.2
2018-May-19 22:00N 61°02' E 004°23'510.0
2018-May-19 21:30N 61°07' E 004°23'510.4
2018-May-19 21:00N 61°12' E 004°24'611.0
2018-May-19 20:30N 61°18' E 004°25'510.9
2018-May-19 20:00N 61°23' E 004°26'510.9
2018-May-19 19:30N 61°29' E 004°27'611.1
2018-May-19 19:00N 61°34' E 004°28'510.9
2018-May-19 18:30N 61°40' E 004°30'511.0
2018-May-19 18:00N 61°44' E 004°36'510.5
2018-May-19 17:30N 61°48' E 004°43'510.7
2018-May-19 17:00N 61°50' E 004°54'1 2.3
2018-May-19 16:30N 61°49' E 004°56'0 0.0
2018-May-19 15:57N 61°49' E 004°56'0 0.0
2018-May-19 15:29N 61°49' E 004°56'0 0.0
2018-May-19 15:00N 61°49' E 004°56'0 0.0
2018-May-19 14:30N 61°49' E 004°56'0 0.0
2018-May-19 14:00N 61°49' E 004°56'0 0.0
2018-May-19 13:28N 61°49' E 004°56'0 0.0
2018-May-19 13:00N 61°49' E 004°56'0 0.0
2018-May-19 12:30N 61°49' E 004°56'0 0.0
2018-May-19 11:55N 61°49' E 004°56'0 0.1
2018-May-19 11:30N 61°49' E 004°56'0 0.0
2018-May-19 11:00N 61°49' E 004°56'0 0.1
2018-May-19 10:30N 61°49' E 004°56'0 0.0
2018-May-19 09:59N 61°49' E 004°56'0 0.0
2018-May-19 09:30N 61°49' E 004°56'0 0.0
2018-May-19 09:00N 61°49' E 004°57'0 0.0
2018-May-19 08:30N 61°49' E 004°57'0 0.0
2018-May-19 08:00N 61°49' E 004°57'0 0.1
2018-May-19 07:30N 61°49' E 004°56'0 0.0
2018-May-19 06:58N 61°49' E 004°56'0 0.1
2018-May-19 06:30N 61°49' E 004°56'0 0.1
2018-May-19 06:00N 61°49' E 004°56'0 0.0
2018-May-19 05:30N 61°49' E 004°56'0 0.0
2018-May-19 05:00N 61°49' E 004°56'0 0.0
2018-May-19 04:29N 61°49' E 004°56'0 0.0
2018-May-19 04:00N 61°49' E 004°56'0 0.0
2018-May-19 03:22N 61°49' E 004°56'0 0.0
2018-May-19 02:58N 61°49' E 004°56'0 0.0
2018-May-19 02:30N 61°49' E 004°56'0 0.0
2018-May-19 02:00N 61°49' E 004°56'0 0.0
2018-May-19 01:30N 61°49' E 004°56'0 0.0
2018-May-19 01:00N 61°49' E 004°56'0 0.0
2018-May-19 00:30N 61°49' E 004°56'0 0.0
2018-May-19 00:00N 61°49' E 004°56'0 0.0
2018-May-18 23:30N 61°49' E 004°56'0 0.0
2018-May-18 23:00N 61°49' E 004°56'0 0.0
2018-May-18 22:30N 61°49' E 004°56'0 0.0
2018-May-18 22:00N 61°49' E 004°56'0 0.0
2018-May-18 21:30N 61°49' E 004°56'0 0.0
2018-May-18 21:00N 61°49' E 004°56'0 0.0
2018-May-18 20:30N 61°49' E 004°56'0 0.0
2018-May-18 20:00N 61°49' E 004°56'0 0.7
2018-May-18 19:30N 61°50' E 004°56'0 0.6
2018-May-18 19:00N 61°49' E 004°56'1 1.3
2018-May-18 18:30N 61°50' E 004°55'1 1.6
2018-May-18 17:59N 61°50' E 004°53'1 1.7
2018-May-18 17:30N 61°49' E 004°52'510.7
2018-May-18 17:00N 61°47' E 004°41'4 8.8
2018-May-18 16:30N 61°43' E 004°39'610.9
2018-May-18 16:00N 61°40' E 004°49'510.9
2018-May-18 15:30N 61°36' E 004°57'5 9.9
2018-May-18 15:00N 61°32' E 005°00'510.6
2018-May-18 14:30N 61°26' E 004°59'510.5
2018-May-18 14:00N 61°21' E 005°02'4 8.2
2018-May-18 13:30N 61°18' E 004°59'4 8.7
2018-May-18 13:00N 61°14' E 004°56'510.3
2018-May-18 12:30N 61°09' E 005°01'510.1
2018-May-18 12:00N 61°04' E 004°59'510.6
2018-May-18 11:29N 61°01' E 004°50'5 9.8
2018-May-18 11:00N 60°56' E 004°46'4 7.1
2018-May-18 10:30N 60°54' E 004°50'0 0.3
2018-May-18 10:00N 60°54' E 004°50'0 0.0
2018-May-18 09:30N 60°54' E 004°50'0 0.2
2018-May-18 09:00N 60°54' E 004°50'0 0.0
2018-May-18 08:30N 60°54' E 004°50'0 0.0
2018-May-18 08:00N 60°54' E 004°50'0 0.0
2018-May-18 07:30N 60°54' E 004°50'0 0.0
2018-May-18 07:00N 60°54' E 004°50'0 0.3
2018-May-18 06:30N 60°53' E 004°50'4 7.3
2018-May-18 05:59N 60°50' E 004°46'510.6
2018-May-18 05:30N 60°45' E 004°47'611.6
2018-May-18 05:00N 60°40' E 004°52'4 8.5
2018-May-18 04:30N 60°36' E 004°51'0 0.0
2018-May-18 04:00N 60°36' E 004°51'1 1.8
2018-May-18 03:30N 60°35' E 004°53'611.3
2018-May-18 03:00N 60°30' E 004°58'611.5
2018-May-18 02:30N 60°25' E 005°04'5 9.9
2018-May-18 02:00N 60°21' E 005°10'4 7.6
2018-May-18 01:29N 60°18' E 005°12'3 6.4
2018-May-18 01:00N 60°15' E 005°09'510.3
2018-May-18 00:30N 60°10' E 005°11'510.8
2018-May-18 00:00N 60°04' E 005°10'4 8.0
2018-May-17 23:27N 60°00' E 005°07'0 0.0
2018-May-17 22:59N 60°00' E 005°07'0 0.0
2018-May-17 22:19N 60°00' E 005°07'0 0.0
2018-May-17 21:59N 60°00' E 005°07'0 0.0
2018-May-17 21:30N 60°00' E 005°07'0 0.0
2018-May-17 20:12N 60°00' E 005°07'0 0.0
2018-May-17 19:59N 60°00' E 005°07'0 0.0
2018-May-17 18:56N 60°00' E 005°07'0 0.0
2018-May-17 18:30N 60°00' E 005°07'0 0.0
2018-May-17 17:56N 60°00' E 005°07'0 0.0
2018-May-17 17:31N 60°00' E 005°07'0 0.0
2018-May-17 17:00N 60°00' E 005°07'0 0.0
2018-May-17 16:22N 60°00' E 005°07'0 0.0
2018-May-17 15:54N 60°00' E 005°07'0 0.0
2018-May-17 15:13N 60°00' E 005°07'0 0.0
2018-May-17 14:50N 60°00' E 005°07'0 0.0
2018-May-17 14:10N 60°00' E 005°07'0 0.0
2018-May-17 13:59N 60°00' E 005°07'0 0.0
2018-May-17 13:21N 60°00' E 005°07'0 0.0
2018-May-17 12:38N 60°00' E 005°07'0 0.0
2018-May-17 12:30N 60°00' E 005°07'0 0.0
2018-May-17 11:56N 60°00' E 005°07'0 0.0
2018-May-17 11:30N 60°00' E 005°07'0 0.0
2018-May-17 10:23N 60°00' E 005°07'0 0.0
2018-May-17 09:59N 60°00' E 005°07'0 0.0
2018-May-17 09:18N 60°00' E 005°07'0 0.0
2018-May-17 08:50N 60°00' E 005°07'0 0.0
2018-May-17 08:29N 60°00' E 005°07'0 0.0
2018-May-17 07:41N 60°00' E 005°07'0 0.0
2018-May-17 07:30N 60°00' E 005°07'0 0.0
2018-May-17 06:55N 60°00' E 005°07'0 0.0
2018-May-17 06:25N 60°00' E 005°07'0 0.0
2018-May-17 05:59N 60°00' E 005°07'0 0.0
2018-May-17 05:30N 60°00' E 005°07'0 0.0
2018-May-17 04:44N 60°00' E 005°07'0 0.0
2018-May-17 04:28N 60°00' E 005°07'0 0.0
2018-May-17 03:59N 60°00' E 005°07'0 0.0
2018-May-17 03:30N 60°00' E 005°07'0 0.0
2018-May-17 03:00N 60°00' E 005°07'0 0.0
2018-May-17 02:29N 60°00' E 005°07'0 0.0
2018-May-17 02:00N 60°00' E 005°07'0 0.0
2018-May-17 01:29N 60°00' E 005°07'0 0.0
2018-May-17 00:49N 60°00' E 005°07'0 0.0
2018-May-17 00:30N 60°00' E 005°07'0 0.0
2018-May-16 23:56N 60°00' E 005°07'0 0.0
2018-May-16 23:19N 60°00' E 005°07'0 0.0
2018-May-16 23:00N 60°00' E 005°07'0 0.0
2018-May-16 22:29N 60°00' E 005°07'0 0.0
2018-May-16 21:45N 60°00' E 005°07'0 0.0
2018-May-16 21:27N 60°00' E 005°07'1 1.9
2018-May-16 21:00N 60°01' E 005°08'3 5.6
2018-May-16 20:30N 60°00' E 005°13'4 8.2
2018-May-16 20:00N 59°59' E 005°21'510.4
2018-May-16 19:30N 59°56' E 005°29'5 9.5
2018-May-16 19:00N 59°51' E 005°33'5 9.8
2018-May-16 18:30N 59°46' E 005°34'5 9.3
2018-May-16 18:00N 59°42' E 005°37'510.3
2018-May-16 17:30N 59°39' E 005°45'3 6.1
2018-May-16 17:00N 59°36' E 005°46'0 0.0
2018-May-16 16:30N 59°36' E 005°46'0 0.0
2018-May-16 16:00N 59°36' E 005°46'0 0.0
2018-May-16 15:30N 59°36' E 005°46'3 6.1
2018-May-16 15:00N 59°39' E 005°47'3 6.0
2018-May-16 14:30N 59°36' E 005°47'0 0.7
2018-May-16 14:00N 59°36' E 005°46'0 0.0
2018-May-16 13:30N 59°36' E 005°46'0 0.0
2018-May-16 13:00N 59°36' E 005°46'0 0.0
2018-May-16 12:30N 59°36' E 005°46'0 0.0
2018-May-16 12:00N 59°36' E 005°46'0 0.0
2018-May-16 11:30N 59°36' E 005°46'0 0.0
2018-May-16 11:00N 59°36' E 005°46'0 0.0
2018-May-16 10:30N 59°36' E 005°46'0 0.0
2018-May-16 10:00N 59°36' E 005°46'0 0.0
2018-May-16 09:30N 59°36' E 005°46'0 0.0
2018-May-16 09:00N 59°36' E 005°46'0 0.0
2018-May-16 08:30N 59°36' E 005°46'0 0.0
2018-May-16 08:00N 59°36' E 005°46'0 0.0
2018-May-16 07:30N 59°36' E 005°46'0 0.0
2018-May-16 07:00N 59°36' E 005°46'0 0.0
2018-May-16 06:30N 59°36' E 005°46'0 0.0
2018-May-16 06:00N 59°36' E 005°46'0 0.0
2018-May-16 05:30N 59°36' E 005°46'0 0.0
2018-May-16 05:00N 59°36' E 005°46'0 0.0
2018-May-16 04:30N 59°36' E 005°46'0 0.0
2018-May-16 04:00N 59°36' E 005°46'0 0.0
2018-May-16 03:30N 59°36' E 005°46'0 0.0
2018-May-16 03:00N 59°36' E 005°46'0 0.0
2018-May-16 02:29N 59°36' E 005°46'0 0.0
2018-May-16 02:00N 59°36' E 005°46'0 0.0
2018-May-16 01:30N 59°36' E 005°46'0 0.0
2018-May-16 01:00N 59°36' E 005°46'0 0.0
2018-May-16 00:30N 59°36' E 005°46'0 0.0
2018-May-16 00:00N 59°36' E 005°46'0 0.0
2018-May-15 23:30N 59°36' E 005°46'0 0.0
2018-May-15 23:00N 59°36' E 005°46'0 0.0
2018-May-15 22:30N 59°36' E 005°46'0 0.0
2018-May-15 22:00N 59°36' E 005°46'0 0.0
2018-May-15 21:30N 59°36' E 005°46'0 0.0
2018-May-15 21:00N 59°36' E 005°46'0 0.0
2018-May-15 20:30N 59°36' E 005°46'0 0.0
2018-May-15 20:00N 59°36' E 005°46'0 0.0
2018-May-15 19:30N 59°36' E 005°46'0 0.0
2018-May-15 19:01N 59°36' E 005°46'0 0.0
2018-May-15 18:30N 59°36' E 005°46'0 0.0
2018-May-15 18:00N 59°36' E 005°46'0 0.0
2018-May-15 17:30N 59°36' E 005°46'0 0.0
2018-May-15 17:00N 59°36' E 005°46'0 0.0
2018-May-15 16:29N 59°36' E 005°46'0 0.0
2018-May-15 16:00N 59°36' E 005°46'0 0.0
2018-May-15 15:30N 59°36' E 005°46'0 0.0
2018-May-15 15:00N 59°36' E 005°46'0 0.0
2018-May-15 14:30N 59°36' E 005°46'0 0.0
2018-May-15 14:00N 59°36' E 005°46'  
Track history (hours):
 
Tides and Currents Weather Stations Pressure Air Temp Water Temp Dewpoint Dewpoint Depression Visibility Wind Speed Wind Dir Waves Ship Positions

Hordafor III

Last reported at 2018-May-25 13:59 UTC. Time now 2018-May-25 14:17 UTC.
Position N 60°00' E 005°07'.

Length 50 m.

Type: Ship. MMSI: 258044000.

Date/timePositionNaut miles runAvg speedWind from/ knotsBaromVisibWave heightAir tempDewpointWater temp
2018-May-25 13:59N 60°00' E 005°07'0 0.0
2018-May-25 13:26N 60°00' E 005°07'0 0.1
2018-May-25 12:56N 60°00' E 005°07'3 5.9
2018-May-25 12:30N 59°58' E 005°09'511.0
2018-May-25 12:00N 60°00' E 005°19'1 2.2
2018-May-25 11:30N 60°01' E 005°19'5 9.1
2018-May-25 11:00N 60°06' E 005°22'611.1
2018-May-25 10:29N 60°10' E 005°30'511.2
2018-May-25 10:00N 60°14' E 005°37'0 0.1
2018-May-25 09:10N 60°14' E 005°37'0 0.4
2018-May-25 08:12N 60°14' E 005°38'310.7
2018-May-25 07:55N 60°12' E 005°34'511.2
2018-May-25 07:30N 60°08' E 005°28'610.9
2018-May-25 07:00N 60°07' E 005°17'3 6.3
2018-May-25 06:30N 60°06' E 005°11'1 2.0
2018-May-25 06:00N 60°06' E 005°13'0 0.0
2018-May-25 05:30N 60°06' E 005°13'0 0.0
2018-May-25 05:00N 60°06' E 005°13'0 0.0
2018-May-25 04:30N 60°06' E 005°13'0 0.0
2018-May-25 04:00N 60°06' E 005°13'0 0.0
2018-May-25 03:30N 60°06' E 005°13'0 0.0
2018-May-25 03:00N 60°06' E 005°13'0 0.0
2018-May-25 02:29N 60°06' E 005°13'0 0.0
2018-May-25 02:00N 60°06' E 005°13'0 0.0
2018-May-25 01:30N 60°06' E 005°13'0 0.0
2018-May-25 01:00N 60°06' E 005°13'0 0.0
2018-May-25 00:30N 60°06' E 005°13'0 0.0
2018-May-25 00:00N 60°06' E 005°13'0 0.0
2018-May-24 23:30N 60°06' E 005°13'0 0.0
2018-May-24 23:00N 60°06' E 005°13'0 0.0
2018-May-24 22:29N 60°06' E 005°13'1 1.4
2018-May-24 22:00N 60°06' E 005°12'3 5.8
2018-May-24 21:30N 60°07' E 005°17'610.9
2018-May-24 21:00N 60°02' E 005°19'511.0
2018-May-24 20:30N 59°57' E 005°13'5 9.1
2018-May-24 20:00N 59°54' E 005°07'0 0.5
2018-May-24 19:30N 59°54' E 005°06'0 0.0
2018-May-24 19:00N 59°54' E 005°06'0 0.0
2018-May-24 18:30N 59°54' E 005°06'0 0.0
2018-May-24 18:00N 59°54' E 005°06'0 0.0
2018-May-24 17:29N 59°54' E 005°06'0 0.0
2018-May-24 17:00N 59°54' E 005°06'2 3.8
2018-May-24 16:31N 59°56' E 005°05'5 9.7
2018-May-24 16:00N 60°00' E 005°07'0 0.6
2018-May-24 15:28N 60°00' E 005°07'0 0.0
2018-May-24 14:49N 60°00' E 005°07'1 3.9
2018-May-24 14:30N 60°01' E 005°09'611.0
2018-May-24 14:00N 60°07' E 005°11'511.1
2018-May-24 13:30N 60°12' E 005°11'12 2.6
2018-May-24 08:59N 60°23' E 005°19'0 0.0
2018-May-24 08:30N 60°23' E 005°19'0 0.0
2018-May-24 08:00N 60°23' E 005°19'0 0.0
2018-May-24 07:30N 60°23' E 005°19'0 0.0
2018-May-24 07:00N 60°23' E 005°19'0 0.0
2018-May-24 06:30N 60°23' E 005°19'0 0.0
2018-May-24 06:00N 60°23' E 005°19'0 0.0
2018-May-24 05:30N 60°23' E 005°19'0 0.0
2018-May-24 05:00N 60°23' E 005°19'0 0.0
2018-May-24 04:30N 60°23' E 005°19'0 0.0
2018-May-24 04:00N 60°23' E 005°19'0 0.0
2018-May-24 03:30N 60°23' E 005°19'0 0.0
2018-May-24 03:00N 60°23' E 005°19'0 0.0
2018-May-24 02:30N 60°23' E 005°19'0 0.0
2018-May-24 02:00N 60°23' E 005°19'0 0.0
2018-May-24 01:29N 60°23' E 005°19'0 0.0
2018-May-24 01:00N 60°23' E 005°19'0 0.0
2018-May-24 00:30N 60°23' E 005°19'0 0.0
2018-May-24 00:00N 60°23' E 005°19'0 0.0
2018-May-23 23:30N 60°23' E 005°19'0 0.0
2018-May-23 23:00N 60°23' E 005°19'0 0.0
2018-May-23 22:29N 60°23' E 005°19'0 0.0
2018-May-23 22:00N 60°23' E 005°19'0 0.0
2018-May-23 21:30N 60°23' E 005°19'0 0.0
2018-May-23 20:59N 60°23' E 005°19'0 0.0
2018-May-23 20:30N 60°23' E 005°19'0 0.0
2018-May-23 19:59N 60°23' E 005°19'0 0.0
2018-May-23 19:30N 60°23' E 005°19'0 0.0
2018-May-23 19:00N 60°23' E 005°19'0 0.0
2018-May-23 18:30N 60°23' E 005°19'1 2.4
2018-May-23 18:00N 60°24' E 005°17'4 8.1
2018-May-23 17:30N 60°24' E 005°09'510.6
2018-May-23 17:00N 60°28' E 005°01'4 7.8
2018-May-23 16:30N 60°31' E 004°56'0 0.0
2018-May-23 16:00N 60°31' E 004°56'0 0.0
2018-May-23 15:30N 60°31' E 004°56'1 1.3
2018-May-23 15:00N 60°31' E 004°56'1 2.5
2018-May-23 14:30N 60°32' E 004°58'0 0.0
2018-May-23 14:00N 60°32' E 004°58'3 5.0
2018-May-23 13:30N 60°34' E 004°55'510.4
2018-May-23 13:00N 60°39' E 004°52'510.6
2018-May-23 12:30N 60°44' E 004°48'510.5
2018-May-23 12:00N 60°49' E 004°44'5 9.0
2018-May-23 11:30N 60°51' E 004°53'511.0
2018-May-23 11:00N 60°49' E 005°04'611.3
2018-May-23 10:30N 60°46' E 005°13'610.8
2018-May-23 10:00N 60°42' E 005°21'4 7.1
2018-May-23 09:28N 60°39' E 005°25'0 0.2
2018-May-23 09:00N 60°39' E 005°25'5 9.8
2018-May-23 08:30N 60°43' E 005°20'511.1
2018-May-23 08:00N 60°47' E 005°11'610.9
2018-May-23 07:30N 60°51' E 005°03'2 4.5
2018-May-23 07:00N 60°53' E 005°02'2 3.6
2018-May-23 06:30N 60°51' E 005°03'3 6.9
2018-May-23 06:00N 60°54' E 004°58'611.2
2018-May-23 05:30N 60°59' E 004°55'510.4
2018-May-23 05:00N 61°04' E 004°52'1 2.5
2018-May-23 04:30N 61°05' E 004°53'0 0.0
2018-May-23 03:59N 61°05' E 004°53'0 0.0
2018-May-23 03:30N 61°05' E 004°53'0 0.0
2018-May-23 03:00N 61°05' E 004°53'0 0.0
2018-May-23 02:29N 61°05' E 004°53'0 0.0
2018-May-23 02:00N 61°05' E 004°53'0 0.0
2018-May-23 01:28N 61°05' E 004°53'0 0.0
2018-May-23 01:00N 61°05' E 004°53'0 0.0
2018-May-23 00:29N 61°05' E 004°53'0 0.0
2018-May-22 23:59N 61°05' E 004°53'0 0.0
2018-May-22 23:30N 61°05' E 004°53'0 0.0
2018-May-22 23:00N 61°05' E 004°53'0 0.0
2018-May-22 22:30N 61°05' E 004°53'0 0.0
2018-May-22 22:00N 61°05' E 004°53'0 0.0
2018-May-22 21:28N 61°05' E 004°53'0 0.0
2018-May-22 20:58N 61°05' E 004°53'0 0.0
2018-May-22 20:29N 61°05' E 004°53'0 0.0
2018-May-22 20:00N 61°05' E 004°53'0 0.0
2018-May-22 19:30N 61°05' E 004°53'0 0.0
2018-May-22 19:00N 61°05' E 004°53'0 0.0
2018-May-22 18:30N 61°05' E 004°53'0 0.0
2018-May-22 18:00N 61°05' E 004°53'0 0.0
2018-May-22 17:30N 61°05' E 004°53'0 0.0
2018-May-22 17:00N 61°05' E 004°53'0 0.0
2018-May-22 16:30N 61°05' E 004°53'0 0.0
2018-May-22 16:00N 61°05' E 004°53'0 0.0
2018-May-22 15:30N 61°05' E 004°53'0 0.0
2018-May-22 15:00N 61°05' E 004°53'0 0.0
2018-May-22 14:30N 61°05' E 004°53'0 0.0
2018-May-22 14:00N 61°05' E 004°53'0 0.0
2018-May-22 13:30N 61°05' E 004°53'0 0.0
2018-May-22 13:00N 61°05' E 004°53'0 0.0
2018-May-22 12:29N 61°05' E 004°53'0 0.0
2018-May-22 12:00N 61°05' E 004°53'0 0.0
2018-May-22 11:30N 61°05' E 004°53'0 0.0
2018-May-22 11:00N 61°05' E 004°53'0 0.0
2018-May-22 10:30N 61°05' E 004°53'0 0.0
2018-May-22 10:00N 61°05' E 004°53'0 0.0
2018-May-22 09:30N 61°05' E 004°53'0 0.0
2018-May-22 09:00N 61°05' E 004°53'0 0.0
2018-May-22 08:30N 61°05' E 004°53'0 0.0
2018-May-22 08:00N 61°05' E 004°53'0 0.0
2018-May-22 07:30N 61°05' E 004°53'0 0.0
2018-May-22 07:00N 61°05' E 004°53'0 0.0
2018-May-22 06:30N 61°05' E 004°53'0 0.0
2018-May-22 06:00N 61°05' E 004°53'0 0.0
2018-May-22 05:30N 61°05' E 004°53'0 0.0
2018-May-22 05:00N 61°05' E 004°53'0 0.0
2018-May-22 04:30N 61°05' E 004°53'0 0.0
2018-May-22 04:00N 61°05' E 004°53'0 0.0
2018-May-22 03:30N 61°05' E 004°53'0 0.0
2018-May-22 03:00N 61°05' E 004°53'1 1.8
2018-May-22 02:29N 61°04' E 004°52'510.1
2018-May-22 02:00N 60°60' E 004°47'611.5
2018-May-22 01:30N 60°54' E 004°46'611.1
2018-May-22 00:59N 60°49' E 004°45'612.2
2018-May-22 00:30N 60°43' E 004°49'612.2
2018-May-22 00:01N 60°37' E 004°53'612.0
2018-May-21 23:30N 60°32' E 004°57'611.7
2018-May-21 23:00N 60°26' E 005°02'611.1
2018-May-21 22:30N 60°22' E 005°10'611.6
2018-May-21 22:00N 60°16' E 005°09'611.1
2018-May-21 21:30N 60°11' E 005°13'611.6
2018-May-21 21:00N 60°06' E 005°18'611.7
2018-May-21 20:30N 60°00' E 005°19'510.9
2018-May-21 20:00N 59°58' E 005°09'3 5.1
2018-May-21 19:30N 60°00' E 005°07'0 0.0
2018-May-21 18:03N 60°00' E 005°07'0 0.0
2018-May-21 17:59N 60°00' E 005°07'0 0.0
2018-May-21 17:30N 60°00' E 005°07'0 0.0
2018-May-21 16:59N 60°00' E 005°07'0 0.0
2018-May-21 16:22N 60°00' E 005°07'0 0.0
2018-May-21 15:58N 60°00' E 005°07'0 0.0
2018-May-21 15:13N 60°00' E 005°07'0 0.0
2018-May-21 14:52N 60°00' E 005°07'0 0.0
2018-May-21 14:30N 60°00' E 005°07'0 0.0
2018-May-21 13:35N 60°00' E 005°07'0 0.0
2018-May-21 13:30N 60°00' E 005°07'0 0.0
2018-May-21 12:59N 60°00' E 005°07'0 0.0
2018-May-21 12:25N 60°00' E 005°07'0 0.0
2018-May-21 12:00N 60°00' E 005°07'0 0.0
2018-May-21 11:29N 60°00' E 005°07'0 0.0
2018-May-21 10:56N 60°00' E 005°07'0 0.0
2018-May-21 10:29N 60°00' E 005°07'0 0.0
2018-May-21 09:35N 60°00' E 005°07'0 0.3
2018-May-21 09:30N 60°00' E 005°07'0 0.0
2018-May-21 08:58N 60°00' E 005°07'0 0.0
2018-May-21 08:22N 60°00' E 005°07'0 0.0
2018-May-21 07:21N 60°00' E 005°07'0 0.0
2018-May-21 07:00N 60°00' E 005°07'0 0.0
2018-May-21 06:23N 60°00' E 005°07'0 0.0
2018-May-21 05:57N 60°00' E 005°07'0 0.0
2018-May-21 05:26N 60°00' E 005°07'0 0.0
2018-May-21 04:50N 60°00' E 005°07'0 0.0
2018-May-21 04:20N 60°00' E 005°07'0 0.0
2018-May-21 04:00N 60°00' E 005°07'0 0.0
2018-May-21 03:30N 60°00' E 005°07'0 0.0
2018-May-21 03:00N 60°00' E 005°07'0 0.0
2018-May-21 02:29N 60°00' E 005°07'0 0.0
2018-May-21 01:49N 60°00' E 005°07'0 0.0
2018-May-21 01:30N 60°00' E 005°07'0 0.0
2018-May-21 00:52N 60°00' E 005°07'0 0.0
2018-May-21 00:29N 60°00' E 005°07'0 0.0
2018-May-20 23:58N 60°00' E 005°07'0 0.0
2018-May-20 23:30N 60°00' E 005°07'0 0.0
2018-May-20 22:59N 60°00' E 005°07'0 0.0
2018-May-20 22:29N 60°00' E 005°07'0 0.0
2018-May-20 21:34N 60°00' E 005°07'0 0.0
2018-May-20 21:29N 60°00' E 005°07'0 0.0
2018-May-20 20:16N 60°00' E 005°07'0 0.0
2018-May-20 20:00N 60°00' E 005°07'0 0.0
2018-May-20 19:30N 60°00' E 005°07'0 0.0
2018-May-20 18:59N 60°00' E 005°07'0 0.0
2018-May-20 18:27N 60°00' E 005°07'0 0.0
2018-May-20 18:00N 60°00' E 005°07'0 0.0
2018-May-20 17:29N 60°00' E 005°07'0 0.0
2018-May-20 16:59N 60°00' E 005°07'0 0.0
2018-May-20 16:30N 60°00' E 005°07'0 0.0
2018-May-20 15:53N 60°00' E 005°07'0 0.0
2018-May-20 15:30N 60°00' E 005°07'0 0.0
2018-May-20 14:58N 60°00' E 005°07'0 0.0
2018-May-20 14:29N 60°00' E 005°07'0 0.0
2018-May-20 14:00N 60°00' E 005°07'0 0.0
2018-May-20 13:24N 60°00' E 005°07'0 0.0
2018-May-20 12:51N 60°00' E 005°07'0 0.0
2018-May-20 12:13N 60°00' E 005°07'0 0.0
2018-May-20 11:55N 60°00' E 005°07'0 0.0
2018-May-20 11:25N 60°00' E 005°07'0 0.0
2018-May-20 11:00N 60°00' E 005°07'0 0.0
2018-May-20 10:18N 60°00' E 005°07'0 0.0
2018-May-20 09:59N 60°00' E 005°07'0 0.0
2018-May-20 09:30N 60°00' E 005°07'0 0.0
2018-May-20 09:00N 60°00' E 005°07'0 0.0
2018-May-20 08:29N 60°00' E 005°07'0 0.0
2018-May-20 07:59N 60°00' E 005°07'0 0.0
2018-May-20 07:30N 60°00' E 005°07'0 0.0
2018-May-20 06:55N 60°00' E 005°07'0 0.0
2018-May-20 06:30N 60°00' E 005°07'0 0.0
2018-May-20 05:59N 60°00' E 005°07'0 0.1
2018-May-20 05:10N 60°00' E 005°07'0 0.4
2018-May-20 04:59N 60°00' E 005°07'3 6.9
2018-May-20 04:30N 59°57' E 005°03'5 9.4
2018-May-20 04:00N 60°01' E 004°57'511.1
2018-May-20 03:31N 60°06' E 004°55'610.9
2018-May-20 03:00N 60°12' E 004°52'510.8
2018-May-20 02:30N 60°17' E 004°50'510.3
2018-May-20 02:00N 60°22' E 004°48'510.5
2018-May-20 01:30N 60°27' E 004°45'511.0
2018-May-20 01:00N 60°32' E 004°42'610.9
2018-May-20 00:29N 60°37' E 004°38'510.7
2018-May-20 00:00N 60°42' E 004°35'510.4
2018-May-19 23:29N 60°48' E 004°32'510.1
2018-May-19 22:59N 60°52' E 004°29'510.1
2018-May-19 22:30N 60°57' E 004°26'510.2
2018-May-19 22:00N 61°02' E 004°23'510.0
2018-May-19 21:30N 61°07' E 004°23'510.4
2018-May-19 21:00N 61°12' E 004°24'611.0
2018-May-19 20:30N 61°18' E 004°25'510.9
2018-May-19 20:00N 61°23' E 004°26'510.9
2018-May-19 19:30N 61°29' E 004°27'611.1
2018-May-19 19:00N 61°34' E 004°28'510.9
2018-May-19 18:30N 61°40' E 004°30'511.0
2018-May-19 18:00N 61°44' E 004°36'510.5
2018-May-19 17:30N 61°48' E 004°43'510.7
2018-May-19 17:00N 61°50' E 004°54'1 2.3
2018-May-19 16:30N 61°49' E 004°56'0 0.0
2018-May-19 15:57N 61°49' E 004°56'0 0.0
2018-May-19 15:29N 61°49' E 004°56'0 0.0
2018-May-19 15:00N 61°49' E 004°56'0 0.0
2018-May-19 14:30N 61°49' E 004°56'0 0.0
2018-May-19 14:00N 61°49' E 004°56'0 0.0
2018-May-19 13:28N 61°49' E 004°56'0 0.0
2018-May-19 13:00N 61°49' E 004°56'0 0.0
2018-May-19 12:30N 61°49' E 004°56'0 0.0
2018-May-19 11:55N 61°49' E 004°56'0 0.1
2018-May-19 11:30N 61°49' E 004°56'0 0.0
2018-May-19 11:00N 61°49' E 004°56'0 0.1
2018-May-19 10:30N 61°49' E 004°56'0 0.0
2018-May-19 09:59N 61°49' E 004°56'0 0.0
2018-May-19 09:30N 61°49' E 004°56'0 0.0
2018-May-19 09:00N 61°49' E 004°57'0 0.0
2018-May-19 08:30N 61°49' E 004°57'0 0.0
2018-May-19 08:00N 61°49' E 004°57'0 0.1
2018-May-19 07:30N 61°49' E 004°56'0 0.0
2018-May-19 06:58N 61°49' E 004°56'0 0.1
2018-May-19 06:30N 61°49' E 004°56'0 0.1
2018-May-19 06:00N 61°49' E 004°56'0 0.0
2018-May-19 05:30N 61°49' E 004°56'0 0.0
2018-May-19 05:00N 61°49' E 004°56'0 0.0
2018-May-19 04:29N 61°49' E 004°56'0 0.0
2018-May-19 04:00N 61°49' E 004°56'0 0.0
2018-May-19 03:22N 61°49' E 004°56'0 0.0
2018-May-19 02:58N 61°49' E 004°56'0 0.0
2018-May-19 02:30N 61°49' E 004°56'0 0.0
2018-May-19 02:00N 61°49' E 004°56'0 0.0
2018-May-19 01:30N 61°49' E 004°56'0 0.0
2018-May-19 01:00N 61°49' E 004°56'0 0.0
2018-May-19 00:30N 61°49' E 004°56'0 0.0
2018-May-19 00:00N 61°49' E 004°56'0 0.0
2018-May-18 23:30N 61°49' E 004°56'0 0.0
2018-May-18 23:00N 61°49' E 004°56'0 0.0
2018-May-18 22:30N 61°49' E 004°56'0 0.0
2018-May-18 22:00N 61°49' E 004°56'0 0.0
2018-May-18 21:30N 61°49' E 004°56'0 0.0
2018-May-18 21:00N 61°49' E 004°56'0 0.0
2018-May-18 20:30N 61°49' E 004°56'0 0.0
2018-May-18 20:00N 61°49' E 004°56'0 0.7
2018-May-18 19:30N 61°50' E 004°56'0 0.6
2018-May-18 19:00N 61°49' E 004°56'1 1.3
2018-May-18 18:30N 61°50' E 004°55'1 1.6
2018-May-18 17:59N 61°50' E 004°53'1 1.7
2018-May-18 17:30N 61°49' E 004°52'510.7
2018-May-18 17:00N 61°47' E 004°41'4 8.8
2018-May-18 16:30N 61°43' E 004°39'610.9
2018-May-18 16:00N 61°40' E 004°49'510.9
2018-May-18 15:30N 61°36' E 004°57'5 9.9
2018-May-18 15:00N 61°32' E 005°00'510.6
2018-May-18 14:30N 61°26' E 004°59'510.5
2018-May-18 14:00N 61°21' E 005°02'4 8.2
2018-May-18 13:30N 61°18' E 004°59'4 8.7
2018-May-18 13:00N 61°14' E 004°56'510.3
2018-May-18 12:30N 61°09' E 005°01'510.1
2018-May-18 12:00N 61°04' E 004°59'510.6
2018-May-18 11:29N 61°01' E 004°50'5 9.8
2018-May-18 11:00N 60°56' E 004°46'4 7.1
2018-May-18 10:30N 60°54' E 004°50'0 0.3
2018-May-18 10:00N 60°54' E 004°50'0 0.0
2018-May-18 09:30N 60°54' E 004°50'0 0.2
2018-May-18 09:00N 60°54' E 004°50'0 0.0
2018-May-18 08:30N 60°54' E 004°50'0 0.0
2018-May-18 08:00N 60°54' E 004°50'0 0.0
2018-May-18 07:30N 60°54' E 004°50'0 0.0
2018-May-18 07:00N 60°54' E 004°50'0 0.3
2018-May-18 06:30N 60°53' E 004°50'4 7.3
2018-May-18 05:59N 60°50' E 004°46'510.6
2018-May-18 05:30N 60°45' E 004°47'611.6
2018-May-18 05:00N 60°40' E 004°52'4 8.5
2018-May-18 04:30N 60°36' E 004°51'0 0.0
2018-May-18 04:00N 60°36' E 004°51'1 1.8
2018-May-18 03:30N 60°35' E 004°53'611.3
2018-May-18 03:00N 60°30' E 004°58'611.5
2018-May-18 02:30N 60°25' E 005°04'5 9.9
2018-May-18 02:00N 60°21' E 005°10'4 7.6
2018-May-18 01:29N 60°18' E 005°12'3 6.4
2018-May-18 01:00N 60°15' E 005°09'510.3
2018-May-18 00:30N 60°10' E 005°11'510.8
2018-May-18 00:00N 60°04' E 005°10'4 8.0
2018-May-17 23:27N 60°00' E 005°07'0 0.0
2018-May-17 22:59N 60°00' E 005°07'0 0.0
2018-May-17 22:19N 60°00' E 005°07'0 0.0
2018-May-17 21:59N 60°00' E 005°07'0 0.0
2018-May-17 21:30N 60°00' E 005°07'0 0.0
2018-May-17 20:12N 60°00' E 005°07'0 0.0
2018-May-17 19:59N 60°00' E 005°07'0 0.0
2018-May-17 18:56N 60°00' E 005°07'0 0.0
2018-May-17 18:30N 60°00' E 005°07'0 0.0
2018-May-17 17:56N 60°00' E 005°07'0 0.0
2018-May-17 17:31N 60°00' E 005°07'0 0.0
2018-May-17 17:00N 60°00' E 005°07'0 0.0
2018-May-17 16:22N 60°00' E 005°07'0 0.0
2018-May-17 15:54N 60°00' E 005°07'0 0.0
2018-May-17 15:13N 60°00' E 005°07'0 0.0
2018-May-17 14:50N 60°00' E 005°07'0 0.0
2018-May-17 14:10N 60°00' E 005°07'0 0.0
2018-May-17 13:59N 60°00' E 005°07'0 0.0
2018-May-17 13:21N 60°00' E 005°07'0 0.0
2018-May-17 12:38N 60°00' E 005°07'0 0.0
2018-May-17 12:30N 60°00' E 005°07'0 0.0
2018-May-17 11:56N 60°00' E 005°07'0 0.0
2018-May-17 11:30N 60°00' E 005°07'0 0.0
2018-May-17 10:23N 60°00' E 005°07'0 0.0
2018-May-17 09:59N 60°00' E 005°07'0 0.0
2018-May-17 09:18N 60°00' E 005°07'0 0.0
2018-May-17 08:50N 60°00' E 005°07'0 0.0
2018-May-17 08:29N 60°00' E 005°07'0 0.0
2018-May-17 07:41N 60°00' E 005°07'0 0.0
2018-May-17 07:30N 60°00' E 005°07'0 0.0
2018-May-17 06:55N 60°00' E 005°07'0 0.0
2018-May-17 06:25N 60°00' E 005°07'0 0.0
2018-May-17 05:59N 60°00' E 005°07'0 0.0
2018-May-17 05:30N 60°00' E 005°07'0 0.0
2018-May-17 04:44N 60°00' E 005°07'0 0.0
2018-May-17 04:28N 60°00' E 005°07'0 0.0
2018-May-17 03:59N 60°00' E 005°07'0 0.0
2018-May-17 03:30N 60°00' E 005°07'0 0.0
2018-May-17 03:00N 60°00' E 005°07'0 0.0
2018-May-17 02:29N 60°00' E 005°07'0 0.0
2018-May-17 02:00N 60°00' E 005°07'0 0.0
2018-May-17 01:29N 60°00' E 005°07'0 0.0
2018-May-17 00:49N 60°00' E 005°07'0 0.0
2018-May-17 00:30N 60°00' E 005°07'0 0.0
2018-May-16 23:56N 60°00' E 005°07'0 0.0
2018-May-16 23:19N 60°00' E 005°07'0 0.0
2018-May-16 23:00N 60°00' E 005°07'0 0.0
2018-May-16 22:29N 60°00' E 005°07'0 0.0
2018-May-16 21:45N 60°00' E 005°07'0 0.0
2018-May-16 21:27N 60°00' E 005°07'1 1.9
2018-May-16 21:00N 60°01' E 005°08'3 5.6
2018-May-16 20:30N 60°00' E 005°13'4 8.2
2018-May-16 20:00N 59°59' E 005°21'510.4
2018-May-16 19:30N 59°56' E 005°29'5 9.5
2018-May-16 19:00N 59°51' E 005°33'5 9.8
2018-May-16 18:30N 59°46' E 005°34'5 9.3
2018-May-16 18:00N 59°42' E 005°37'510.3
2018-May-16 17:30N 59°39' E 005°45'3 6.1
2018-May-16 17:00N 59°36' E 005°46'0 0.0
2018-May-16 16:30N 59°36' E 005°46'0 0.0
2018-May-16 16:00N 59°36' E 005°46'0 0.0
2018-May-16 15:30N 59°36' E 005°46'3 6.1
2018-May-16 15:00N 59°39' E 005°47'3 6.0
2018-May-16 14:30N 59°36' E 005°47'0 0.7
2018-May-16 14:00N 59°36' E 005°46'0 0.0
2018-May-16 13:30N 59°36' E 005°46'0 0.0
2018-May-16 13:00N 59°36' E 005°46'0 0.0
2018-May-16 12:30N 59°36' E 005°46'0 0.0
2018-May-16 12:00N 59°36' E 005°46'0 0.0
2018-May-16 11:30N 59°36' E 005°46'0 0.0
2018-May-16 11:00N 59°36' E 005°46'0 0.0
2018-May-16 10:30N 59°36' E 005°46'0 0.0
2018-May-16 10:00N 59°36' E 005°46'0 0.0
2018-May-16 09:30N 59°36' E 005°46'0 0.0
2018-May-16 09:00N 59°36' E 005°46'0 0.0
2018-May-16 08:30N 59°36' E 005°46'0 0.0
2018-May-16 08:00N 59°36' E 005°46'0 0.0
2018-May-16 07:30N 59°36' E 005°46'0 0.0
2018-May-16 07:00N 59°36' E 005°46'0 0.0
2018-May-16 06:30N 59°36' E 005°46'0 0.0
2018-May-16 06:00N 59°36' E 005°46'0 0.0
2018-May-16 05:30N 59°36' E 005°46'0 0.0
2018-May-16 05:00N 59°36' E 005°46'0 0.0
2018-May-16 04:30N 59°36' E 005°46'0 0.0
2018-May-16 04:00N 59°36' E 005°46'0 0.0
2018-May-16 03:30N 59°36' E 005°46'0 0.0
2018-May-16 03:00N 59°36' E 005°46'0 0.0
2018-May-16 02:29N 59°36' E 005°46'0 0.0
2018-May-16 02:00N 59°36' E 005°46'0 0.0
2018-May-16 01:30N 59°36' E 005°46'0 0.0
2018-May-16 01:00N 59°36' E 005°46'0 0.0
2018-May-16 00:30N 59°36' E 005°46'0 0.0
2018-May-16 00:00N 59°36' E 005°46'0 0.0
2018-May-15 23:30N 59°36' E 005°46'0 0.0
2018-May-15 23:00N 59°36' E 005°46'0 0.0
2018-May-15 22:30N 59°36' E 005°46'0 0.0
2018-May-15 22:00N 59°36' E 005°46'0 0.0
2018-May-15 21:30N 59°36' E 005°46'0 0.0
2018-May-15 21:00N 59°36' E 005°46'0 0.0
2018-May-15 20:30N 59°36' E 005°46'0 0.0
2018-May-15 20:00N 59°36' E 005°46'0 0.0
2018-May-15 19:30N 59°36' E 005°46'0 0.0
2018-May-15 19:01N 59°36' E 005°46'0 0.0
2018-May-15 18:30N 59°36' E 005°46'0 0.0
2018-May-15 18:00N 59°36' E 005°46'0 0.0
2018-May-15 17:30N 59°36' E 005°46'0 0.0
2018-May-15 17:00N 59°36' E 005°46'0 0.0
2018-May-15 16:29N 59°36' E 005°46'0 0.0
2018-May-15 16:00N 59°36' E 005°46'0 0.0
2018-May-15 15:30N 59°36' E 005°46'0 0.0
2018-May-15 15:00N 59°36' E 005°46'0 0.0
2018-May-15 14:30N 59°36' E 005°46'0 0.0
2018-May-15 14:00N 59°36' E 005°46'  

Dump ship's entire track history